Time;durP1;ratioP1;P1;durP2;ratioP2;P2;SDS_P1;SDS_P2;PMS_P1;PMS_P2;Temp;Humidity;BMP_temperature;BMP_pressure;BME280_temperature;BME280_humidity;BME280_pressure;Samples;Min_cycle;Max_cycle;Signal;HPM_P1;HPM_P2
2023/07/24 00:01:28;;;;;;;9.57;4.50;;;16.70;99.90;;;;;;5112436;28;20080;-81
2023/07/24 00:03:56;;;;;;;10.65;5.22;;;16.60;99.90;;;;;;5095699;28;20043;-81
2023/07/24 00:06:22;;;;;;;8.48;4.70;;;16.60;99.90;;;;;;5095750;28;20042;-81
2023/07/24 00:08:49;;;;;;;9.77;4.30;;;16.50;99.90;;;;;;5099741;27;20391;-81
2023/07/24 00:11:16;;;;;;;6.55;3.90;;;16.50;99.90;;;;;;5115507;27;20126;-81
2023/07/24 00:13:42;;;;;;;10.30;4.22;;;16.60;99.90;;;;;;5131598;27;20126;-81
2023/07/24 00:16:10;;;;;;;9.10;4.82;;;16.50;99.90;;;;;;5132439;27;20042;-81
2023/07/24 00:18:36;;;;;;;11.13;4.32;;;16.50;99.90;;;;;;5132180;27;20046;-81
2023/07/24 00:21:03;;;;;;;9.75;4.70;;;16.50;99.90;;;;;;5131140;27;20043;-81
2023/07/24 00:23:30;;;;;;;9.25;4.40;;;16.40;99.90;;;;;;5149696;27;20035;-81
2023/07/24 00:25:56;;;;;;;9.27;4.35;;;16.40;99.90;;;;;;5132425;27;20035;-81
2023/07/24 00:28:23;;;;;;;9.95;4.97;;;16.40;99.90;;;;;;5132333;27;20126;-81
2023/07/24 00:30:50;;;;;;;11.68;4.88;;;16.40;99.90;;;;;;5117104;28;20058;-81
2023/07/24 00:33:16;;;;;;;8.48;4.53;;;16.50;99.90;;;;;;5128562;28;20036;-81
2023/07/24 00:35:43;;;;;;;8.95;4.90;;;16.40;99.90;;;;;;5111952;28;20050;-81
2023/07/24 00:38:10;;;;;;;10.38;4.80;;;16.40;99.90;;;;;;5111625;28;20036;-81
2023/07/24 00:40:36;;;;;;;10.55;5.15;;;16.40;99.90;;;;;;5111657;28;20044;-81
2023/07/24 00:43:03;;;;;;;8.73;4.95;;;16.40;99.90;;;;;;5128652;28;20047;-81
2023/07/24 00:45:30;;;;;;;12.32;4.97;;;16.40;99.90;;;;;;5111408;28;20058;-81
2023/07/24 00:48:00;;;;;;;9.15;4.78;;;16.30;99.90;;;;;;5111824;28;20456;-81
2023/07/24 00:50:28;;;;;;;9.27;4.38;;;16.30;99.90;;;;;;5133752;27;20376;-81
2023/07/24 00:52:55;;;;;;;9.27;4.93;;;16.30;99.90;;;;;;5126178;28;20039;-81
2023/07/24 00:55:22;;;;;;;10.52;5.05;;;16.30;99.90;;;;;;5128022;28;20127;-81
2023/07/24 00:57:50;;;;;;;8.40;5.03;;;16.20;99.90;;;;;;5111606;28;20613;-82
2023/07/24 01:00:16;;;;;;;9.90;4.85;;;16.20;99.90;;;;;;5095865;27;20699;-81
2023/07/24 01:02:44;;;;;;;10.52;4.90;;;16.20;99.90;;;;;;5094740;28;20044;-81
2023/07/24 01:05:14;;;;;;;10.50;5.60;;;16.20;99.90;;;;;;5111044;28;20070;-81
2023/07/24 01:07:41;;;;;;;14.25;5.07;;;16.20;99.90;;;;;;5111111;28;20031;-81
2023/07/24 01:10:08;;;;;;;12.50;5.20;;;16.20;99.90;;;;;;5094534;28;20427;-81
2023/07/24 01:12:43;;;;;;;9.80;5.22;;;16.20;99.90;;;;;;5129371;28;20095;-81
2023/07/24 01:15:19;;;;;;;;;;;16.20;99.90;;;;;;5129155;28;20437;-81
2023/07/24 01:17:50;;;;;;;8.80;5.05;;;16.10;99.90;;;;;;5145037;28;19915;-81
2023/07/24 01:20:19;;;;;;;11.02;5.10;;;16.10;99.90;;;;;;5127546;28;20449;-81
2023/07/24 01:23:13;;;;;;;9.35;4.60;;;16.10;99.90;;;;;;5111550;28;20067;-81
2023/07/24 01:26:06;;;;;;;8.25;4.97;;;16.00;99.90;;;;;;5144598;28;20593;-81
2023/07/24 01:28:33;;;;;;;9.90;5.05;;;16.00;99.90;;;;;;5108105;28;20181;-81
2023/07/24 01:31:00;;;;;;;10.43;5.10;;;15.90;99.90;;;;;;5127860;28;20122;-81
2023/07/24 01:33:27;;;;;;;10.07;4.95;;;15.90;99.90;;;;;;5111992;28;20522;-81
2023/07/24 01:35:57;;;;;;;11.70;5.38;;;15.90;99.90;;;;;;5128164;28;20035;-81
2023/07/24 01:38:27;;;;;;;11.30;5.63;;;15.90;99.90;;;;;;5127504;28;20460;-81
2023/07/24 01:40:55;;;;;;;12.07;5.72;;;15.90;99.90;;;;;;5111218;28;20035;-81
2023/07/24 01:43:22;;;;;;;11.60;6.50;;;15.90;99.90;;;;;;5138599;27;20043;-81
2023/07/24 01:45:49;;;;;;;13.02;6.25;;;15.90;99.90;;;;;;5148101;27;20545;-81
2023/07/24 01:48:15;;;;;;;10.82;6.00;;;15.90;99.90;;;;;;5130760;27;20043;-81
2023/07/24 01:50:42;;;;;;;12.32;6.88;;;16.00;99.90;;;;;;5131216;27;20399;-81
2023/07/24 01:53:09;;;;;;;12.65;7.60;;;16.00;99.90;;;;;;5146158;27;20047;-81
2023/07/24 01:55:36;;;;;;;11.35;6.93;;;15.90;99.90;;;;;;5102161;28;20058;-81
2023/07/24 01:58:02;;;;;;;12.10;7.75;;;15.90;99.90;;;;;;5110721;28;20043;-81
2023/07/24 02:00:29;;;;;;;12.20;8.02;;;15.90;99.90;;;;;;5110490;28;20391;-81
2023/07/24 02:02:56;;;;;;;14.02;7.75;;;16.00;99.90;;;;;;5110222;28;20046;-81
2023/07/24 02:05:23;;;;;;;14.27;8.10;;;16.00;99.90;;;;;;5109976;28;20468;-81
2023/07/24 02:07:49;;;;;;;14.13;8.25;;;16.00;99.90;;;;;;5127572;28;20047;-81
2023/07/24 02:10:16;;;;;;;14.57;8.32;;;16.00;99.90;;;;;;5110782;28;20035;-81
2023/07/24 02:12:43;;;;;;;14.50;8.90;;;16.00;99.90;;;;;;5127341;28;20083;-82
2023/07/24 02:15:10;;;;;;;13.63;8.88;;;16.10;99.90;;;;;;5110389;28;20046;-80
2023/07/24 02:17:37;;;;;;;14.02;9.00;;;16.10;99.90;;;;;;5111049;28;20077;-81
2023/07/24 02:20:04;;;;;;;13.88;8.65;;;16.10;99.90;;;;;;5093966;28;20044;-80
2023/07/24 02:22:31;;;;;;;12.10;8.68;;;16.00;99.90;;;;;;5109809;28;20464;-81
2023/07/24 02:24:57;;;;;;;12.30;8.73;;;16.00;99.90;;;;;;5109881;28;20126;-81
2023/07/24 02:27:34;;;;;;;14.35;9.38;;;16.00;99.90;;;;;;5109877;28;20047;-81
2023/07/24 02:30:02;;;;;;;12.68;8.77;;;16.00;99.90;;;;;;5136812;28;20407;-81
2023/07/24 02:32:28;;;;;;;14.05;8.93;;;16.00;99.90;;;;;;5151680;28;20514;-82
2023/07/24 02:34:55;;;;;;;16.15;8.57;;;16.10;99.90;;;;;;5110148;28;20082;-81
2023/07/24 02:37:22;;;;;;;15.80;9.50;;;16.10;99.90;;;;;;5128363;28;20441;-81
2023/07/24 02:39:49;;;;;;;12.52;8.73;;;16.00;99.90;;;;;;5105094;28;20069;-81
2023/07/24 02:42:15;;;;;;;11.48;8.45;;;16.00;99.90;;;;;;5128610;28;20519;-81
2023/07/24 02:44:42;;;;;;;12.23;8.32;;;16.10;99.90;;;;;;5147281;28;20138;-81
2023/07/24 02:47:09;;;;;;;13.30;8.23;;;16.00;99.90;;;;;;5114025;28;20054;-81
2023/07/24 02:49:35;;;;;;;11.93;7.85;;;16.00;99.90;;;;;;5118095;28;20546;-81
2023/07/24 02:52:02;;;;;;;11.30;7.65;;;16.10;99.90;;;;;;5130949;28;20100;-81
2023/07/24 02:54:29;;;;;;;17.60;8.10;;;16.10;99.90;;;;;;5147253;28;20384;-81
2023/07/24 02:56:56;;;;;;;13.55;8.20;;;16.10;99.90;;;;;;5113964;28;20048;-81
2023/07/24 02:59:22;;;;;;;12.85;7.43;;;16.10;99.90;;;;;;5115217;27;20038;-81
2023/07/24 03:01:49;;;;;;;10.50;7.47;;;16.10;99.90;;;;;;5120592;27;20046;-81
2023/07/24 03:04:16;;;;;;;10.27;7.20;;;16.10;99.90;;;;;;5134197;27;20444;-81
2023/07/24 03:06:42;;;;;;;9.80;6.82;;;16.10;99.90;;;;;;5134034;27;20068;-81
2023/07/24 03:09:09;;;;;;;12.10;8.05;;;16.10;99.90;;;;;;5150948;27;20047;-81
2023/07/24 03:11:36;;;;;;;14.73;7.47;;;16.10;99.90;;;;;;5132125;27;20043;-81
2023/07/24 03:14:02;;;;;;;14.75;7.75;;;16.10;99.90;;;;;;5131514;28;20044;-81
2023/07/24 03:16:29;;;;;;;10.57;7.35;;;16.00;99.90;;;;;;5096819;28;20073;-81
2023/07/24 03:18:56;;;;;;;10.30;7.78;;;16.10;99.90;;;;;;5097014;28;20513;-81
2023/07/24 03:21:22;;;;;;;11.52;8.15;;;16.00;99.90;;;;;;5131319;28;20040;-81
2023/07/24 03:23:49;;;;;;;12.73;7.82;;;16.10;99.90;;;;;;5109286;28;20043;-81
2023/07/24 03:26:16;;;;;;;12.90;7.50;;;16.00;99.90;;;;;;5096915;28;20035;-81
2023/07/24 03:28:42;;;;;;;12.50;8.27;;;16.10;99.90;;;;;;5129386;28;20539;-81
2023/07/24 03:31:09;;;;;;;15.13;8.13;;;16.10;99.90;;;;;;5112851;28;20407;-81
2023/07/24 03:33:36;;;;;;;13.02;7.97;;;16.00;99.90;;;;;;5128987;28;20035;-81
2023/07/24 03:36:03;;;;;;;14.27;8.30;;;16.10;99.90;;;;;;5129674;28;20071;-82
2023/07/24 03:38:30;;;;;;;12.70;8.35;;;16.00;99.90;;;;;;5129265;28;20571;-81
2023/07/24 03:40:56;;;;;;;13.00;7.60;;;16.00;99.90;;;;;;5131824;27;20126;-81
2023/07/24 03:43:23;;;;;;;13.10;7.75;;;16.00;99.90;;;;;;5133027;27;20099;-81
2023/07/24 03:45:50;;;;;;;12.18;8.25;;;16.00;99.90;;;;;;5115091;27;20055;-80
2023/07/24 03:48:17;;;;;;;11.45;8.13;;;16.10;99.90;;;;;;5149540;27;20406;-81
2023/07/24 03:50:43;;;;;;;12.35;8.05;;;16.10;99.90;;;;;;5116044;27;20043;-80
2023/07/24 03:53:10;;;;;;;11.13;7.60;;;16.10;99.90;;;;;;5115081;28;20039;-81
2023/07/24 03:55:37;;;;;;;12.05;7.47;;;16.10;99.90;;;;;;5095686;28;20040;-81
2023/07/24 03:58:04;;;;;;;10.75;7.80;;;16.20;99.90;;;;;;5129558;28;20048;-81
2023/07/24 04:00:30;;;;;;;12.20;7.60;;;16.20;99.90;;;;;;5129336;28;20044;-81
2023/07/24 04:02:57;;;;;;;10.52;7.70;;;16.20;99.90;;;;;;5104114;28;20044;-81
2023/07/24 04:05:24;;;;;;;12.15;8.23;;;16.20;99.90;;;;;;5095953;28;20050;-81
2023/07/24 04:07:50;;;;;;;11.48;7.13;;;16.20;99.90;;;;;;5128953;28;20455;-81
2023/07/24 04:10:17;;;;;;;11.50;7.50;;;16.20;99.90;;;;;;5129376;28;20038;-81
2023/07/24 04:12:44;;;;;;;10.48;6.65;;;16.20;99.90;;;;;;5118463;27;20039;-81
2023/07/24 04:15:11;;;;;;;10.68;7.45;;;16.20;99.90;;;;;;5128917;28;20043;-81
2023/07/24 04:17:39;;;;;;;11.05;6.95;;;16.20;99.90;;;;;;5095421;28;20114;-81
2023/07/24 04:20:07;;;;;;;10.73;7.57;;;16.20;99.90;;;;;;5112927;28;20043;-81
2023/07/24 04:22:33;;;;;;;11.88;7.20;;;16.20;99.90;;;;;;5095669;27;20138;-81
2023/07/24 04:25:00;;;;;;;10.63;7.43;;;16.20;99.90;;;;;;5113109;28;20119;-81
2023/07/24 04:27:27;;;;;;;11.65;7.47;;;16.20;99.90;;;;;;5095619;28;20042;-81
2023/07/24 04:29:54;;;;;;;11.38;7.00;;;16.20;99.90;;;;;;5095587;28;20138;-81
2023/07/24 04:32:20;;;;;;;10.68;7.53;;;16.20;99.90;;;;;;5112292;28;20047;-81
2023/07/24 04:34:47;;;;;;;10.02;6.82;;;16.20;99.90;;;;;;5095332;28;20039;-81
2023/07/24 04:37:14;;;;;;;12.63;7.40;;;16.30;99.90;;;;;;5095465;28;20532;-81
2023/07/24 04:39:40;;;;;;;12.18;8.30;;;16.30;99.90;;;;;;5111532;28;20039;-81
2023/07/24 04:42:07;;;;;;;9.43;6.50;;;16.30;99.90;;;;;;5128611;28;20051;-81
2023/07/24 04:44:34;;;;;;;9.93;6.45;;;16.30;99.90;;;;;;5102955;28;20038;-81
2023/07/24 04:47:03;;;;;;;11.63;6.90;;;16.30;99.90;;;;;;5111295;28;20056;-81
2023/07/24 04:49:30;;;;;;;12.55;7.05;;;16.30;99.90;;;;;;5112298;28;20086;-81
2023/07/24 04:51:57;;;;;;;10.52;6.60;;;16.30;99.90;;;;;;5111440;28;20483;-82
2023/07/24 04:54:24;;;;;;;10.45;7.20;;;16.40;99.90;;;;;;5111505;28;20043;-81
2023/07/24 04:56:51;;;;;;;13.05;6.25;;;16.40;99.90;;;;;;5128490;28;20035;-82
2023/07/24 04:59:17;;;;;;;10.02;6.35;;;16.40;99.90;;;;;;5111262;28;20043;-81
2023/07/24 05:01:44;;;;;;;9.38;6.38;;;16.40;99.90;;;;;;5110794;28;20134;-81
2023/07/24 05:04:11;;;;;;;9.75;6.38;;;16.40;99.90;;;;;;5112984;27;20035;-81
2023/07/24 05:06:38;;;;;;;9.07;6.32;;;16.50;99.90;;;;;;5095100;28;20036;-81
2023/07/24 05:09:05;;;;;;;12.20;6.95;;;16.50;99.90;;;;;;5094947;28;20038;-81
2023/07/24 05:11:31;;;;;;;10.55;6.55;;;16.40;99.90;;;;;;5111418;28;20039;-82
2023/07/24 05:13:58;;;;;;;9.63;6.00;;;16.50;99.90;;;;;;5111320;28;20403;-81
2023/07/24 05:16:25;;;;;;;10.25;6.55;;;16.50;99.90;;;;;;5108481;28;20035;-81
2023/07/24 05:18:51;;;;;;;10.90;6.97;;;16.50;99.90;;;;;;5110826;28;20046;-81
2023/07/24 05:21:18;;;;;;;9.25;6.72;;;16.50;99.90;;;;;;5128120;28;20392;-81
2023/07/24 05:23:47;;;;;;;11.45;7.07;;;16.50;99.90;;;;;;5110930;28;20594;-81
2023/07/24 05:26:14;;;;;;;11.73;6.95;;;16.60;99.90;;;;;;5112530;28;20085;-81
2023/07/24 05:28:41;;;;;;;10.88;6.65;;;16.60;99.90;;;;;;5111938;27;20031;-81
2023/07/24 05:31:08;;;;;;;10.25;6.75;;;16.60;99.90;;;;;;5131253;27;20045;-81
2023/07/24 05:33:34;;;;;;;10.25;6.60;;;16.60;99.90;;;;;;5115025;27;20087;-82
2023/07/24 05:36:03;;;;;;;10.25;7.15;;;16.60;99.90;;;;;;5146603;27;20403;-82
2023/07/24 05:38:30;;;;;;;10.15;6.55;;;16.60;99.90;;;;;;5131585;27;20091;-81
2023/07/24 05:41:02;;;;;;;9.25;6.47;;;16.70;99.90;;;;;;5147970;27;20054;-81
2023/07/24 05:43:30;;;;;;;9.88;6.63;;;16.60;99.90;;;;;;5131344;27;20075;-82
2023/07/24 05:45:57;;;;;;;10.52;6.72;;;16.70;99.90;;;;;;5143767;28;20056;-81
2023/07/24 05:48:25;;;;;;;10.23;6.72;;;16.70;99.90;;;;;;5144548;28;20047;-81
2023/07/24 05:50:51;;;;;;;10.23;6.60;;;16.70;99.90;;;;;;5093561;28;20526;-81
2023/07/24 05:53:18;;;;;;;11.00;6.50;;;16.80;99.90;;;;;;5127937;28;20087;-81
2023/07/24 05:55:48;;;;;;;8.90;6.38;;;16.90;99.90;;;;;;5110754;28;20043;-81
2023/07/24 05:58:14;;;;;;;9.60;6.32;;;16.90;99.90;;;;;;5109406;28;20047;-81
2023/07/24 06:00:41;;;;;;;9.32;6.57;;;17.00;99.90;;;;;;5127762;28;20220;-81
2023/07/24 06:03:08;;;;;;;10.18;6.68;;;17.00;99.90;;;;;;5109876;28;20035;-81
2023/07/24 06:05:34;;;;;;;13.80;6.47;;;17.10;99.90;;;;;;5093876;28;20036;-81
2023/07/24 06:08:01;;;;;;;9.35;6.45;;;17.10;99.90;;;;;;5121396;28;20040;-81
2023/07/24 06:10:28;;;;;;;11.93;6.72;;;17.20;99.90;;;;;;5147431;27;20046;-81
2023/07/24 06:12:54;;;;;;;10.23;6.70;;;17.20;99.90;;;;;;5112824;27;20050;-81
2023/07/24 06:15:21;;;;;;;12.02;6.55;;;17.20;99.90;;;;;;5130616;27;20043;-81
2023/07/24 06:17:48;;;;;;;10.02;6.57;;;17.20;99.90;;;;;;5104539;28;20031;-82
2023/07/24 06:20:15;;;;;;;11.15;6.75;;;17.20;99.90;;;;;;5110251;28;20043;-81
2023/07/24 06:22:41;;;;;;;10.32;6.35;;;17.20;99.90;;;;;;5110352;28;20040;-82
2023/07/24 06:25:08;;;;;;;11.73;7.10;;;17.20;99.90;;;;;;5110050;28;20043;-82
2023/07/24 06:27:35;;;;;;;10.40;6.97;;;17.20;99.90;;;;;;5112878;28;20039;-82
2023/07/24 06:30:02;;;;;;;10.27;6.95;;;17.20;99.90;;;;;;5130279;28;20403;-82
2023/07/24 06:32:29;;;;;;;9.35;6.47;;;17.20;99.90;;;;;;5114014;28;20047;-82
2023/07/24 06:34:56;;;;;;;9.13;6.97;;;17.20;99.90;;;;;;5164208;28;20053;-82
2023/07/24 06:37:23;;;;;;;12.73;6.95;;;17.20;99.90;;;;;;5130480;28;20045;-81
2023/07/24 06:39:49;;;;;;;12.85;7.22;;;17.20;99.90;;;;;;5109374;28;20100;-82
2023/07/24 06:42:19;;;;;;;9.52;6.35;;;17.20;99.90;;;;;;5093012;28;20126;-81
2023/07/24 06:44:46;;;;;;;10.70;6.63;;;17.20;99.90;;;;;;5110711;28;20086;-82
2023/07/24 06:47:16;;;;;;;9.90;6.60;;;17.30;99.90;;;;;;5092885;28;20083;-81
2023/07/24 06:49:43;;;;;;;10.23;6.50;;;17.30;99.90;;;;;;5145162;28;20428;-82
2023/07/24 06:52:10;;;;;;;12.88;7.20;;;17.30;99.90;;;;;;5109469;28;20131;-82
2023/07/24 06:54:36;;;;;;;11.35;6.63;;;17.30;99.90;;;;;;5110363;28;20047;-82
2023/07/24 06:57:03;;;;;;;9.07;6.28;;;17.40;99.90;;;;;;5126507;28;20127;-82
2023/07/24 06:59:30;;;;;;;10.98;7.03;;;17.40;99.90;;;;;;5093623;28;20499;-82
2023/07/24 07:01:57;;;;;;;12.80;6.32;;;17.40;99.90;;;;;;5111526;28;20043;-82
2023/07/24 07:04:23;;;;;;;13.05;6.43;;;17.50;99.90;;;;;;5126105;28;20486;-82
2023/07/24 07:06:50;;;;;;;9.80;6.32;;;17.50;99.90;;;;;;5126703;28;20082;-82
2023/07/24 07:09:17;;;;;;;11.95;6.55;;;17.50;99.90;;;;;;5094765;28;20800;-82
2023/07/24 07:11:44;;;;;;;15.93;7.47;;;17.60;99.90;;;;;;5110085;28;20067;-81
2023/07/24 07:14:12;;;;;;;8.82;6.43;;;17.60;99.90;;;;;;5093127;28;20031;-82
2023/07/24 07:16:39;;;;;;;11.13;6.65;;;17.60;99.90;;;;;;5093631;28;20086;-82
2023/07/24 07:19:06;;;;;;;14.27;6.53;;;17.70;99.90;;;;;;5119304;28;20074;-82
2023/07/24 07:21:32;;;;;;;10.68;6.22;;;17.70;99.90;;;;;;5139010;28;20051;-81
2023/07/24 07:23:59;;;;;;;13.63;6.55;;;17.70;99.90;;;;;;5104366;27;20043;-82
2023/07/24 07:26:26;;;;;;;10.73;6.40;;;17.70;99.90;;;;;;5107779;27;20038;-82
2023/07/24 07:28:52;;;;;;;13.20;6.07;;;17.80;99.90;;;;;;5133907;27;20525;-82
2023/07/24 07:31:19;;;;;;;14.77;6.65;;;17.80;99.90;;;;;;5133315;27;20035;-82
2023/07/24 07:33:46;;;;;;;13.25;7.20;;;17.90;99.90;;;;;;5115056;27;20034;-82
2023/07/24 07:36:13;;;;;;;10.82;6.35;;;17.80;99.90;;;;;;5116284;27;20121;-81
2023/07/24 07:38:40;;;;;;;10.77;6.55;;;17.80;99.90;;;;;;5116798;27;20542;-82
2023/07/24 07:41:06;;;;;;;11.32;6.50;;;17.90;99.90;;;;;;5110047;27;20028;-83
2023/07/24 07:43:34;;;;;;;13.20;6.60;;;17.90;99.90;;;;;;5130805;28;20060;-83
2023/07/24 07:46:02;;;;;;;12.88;6.55;;;17.90;99.90;;;;;;5113421;28;20043;-83
2023/07/24 07:48:28;;;;;;;13.18;6.53;;;17.90;99.90;;;;;;5096047;28;20494;-83
2023/07/24 07:50:55;;;;;;;13.10;6.88;;;17.90;99.90;;;;;;5112688;28;20047;-83
2023/07/24 07:53:22;;;;;;;9.55;6.35;;;18.00;99.90;;;;;;5112738;28;20043;-82
2023/07/24 07:55:59;;;;;;;15.10;7.15;;;18.00;99.90;;;;;;5123757;28;20134;-84
2023/07/24 07:58:26;;;;;;;12.10;6.53;;;18.10;99.90;;;;;;5129365;28;20050;-84
2023/07/24 08:00:53;;;;;;;12.25;6.97;;;18.10;99.90;;;;;;5129448;28;20811;-83
2023/07/24 08:03:20;;;;;;;11.63;6.95;;;18.20;99.90;;;;;;5128994;28;20396;-83
2023/07/24 08:05:46;;;;;;;11.23;7.05;;;18.20;99.90;;;;;;5132372;27;20039;-83
2023/07/24 08:08:13;;;;;;;10.25;6.72;;;18.30;99.90;;;;;;5115839;27;20450;-83
2023/07/24 08:10:40;;;;;;;11.30;6.35;;;18.30;99.90;;;;;;5167337;27;20126;-83
2023/07/24 08:13:07;;;;;;;11.18;6.20;;;18.40;99.90;;;;;;5116289;27;20126;-83
2023/07/24 08:15:35;;;;;;;10.82;6.40;;;18.50;99.90;;;;;;5108547;28;20043;-82
2023/07/24 08:18:03;;;;;;;9.55;6.13;;;18.60;99.90;;;;;;5139906;27;20054;-82
2023/07/24 08:20:31;;;;;;;11.05;6.53;;;18.70;99.90;;;;;;5137059;27;20050;-82
2023/07/24 08:22:57;;;;;;;11.55;6.95;;;18.70;99.90;;;;;;5114426;27;20042;-82
2023/07/24 08:25:24;;;;;;;12.73;6.57;;;18.80;99.90;;;;;;5119788;27;20039;-83
2023/07/24 08:27:51;;;;;;;11.45;6.03;;;18.80;99.90;;;;;;5106461;27;20893;-82
2023/07/24 08:30:19;;;;;;;12.50;5.85;;;18.90;99.90;;;;;;5121229;27;20074;-83
2023/07/24 08:32:45;;;;;;;13.10;6.28;;;19.10;99.90;;;;;;5124014;27;20040;-83
2023/07/24 08:35:12;;;;;;;11.60;6.47;;;19.20;99.90;;;;;;5121831;28;20108;-82
2023/07/24 08:37:44;;;;;;;15.13;6.28;;;19.30;99.90;;;;;;5095751;28;20487;-82
2023/07/24 08:40:11;;;;;;;13.32;6.72;;;19.30;99.90;;;;;;5133379;27;20495;-83
2023/07/24 08:42:40;;;;;;;13.13;6.20;;;19.30;99.90;;;;;;5131629;27;20096;-83
2023/07/24 08:45:12;;;;;;;15.20;6.97;;;19.40;99.90;;;;;;5137944;27;20043;-83
2023/07/24 08:47:43;;;;;;;12.38;6.53;;;19.40;99.90;;;;;;5123275;27;20074;-83
2023/07/24 08:50:15;;;;;;;10.98;6.32;;;19.40;99.90;;;;;;5130071;27;20100;-83
2023/07/24 08:52:43;;;;;;;13.65;6.70;;;19.40;99.90;;;;;;5145667;28;20044;-83
2023/07/24 08:55:10;;;;;;;11.88;6.90;;;19.40;99.90;;;;;;5139182;27;20039;-83
2023/07/24 08:57:37;;;;;;;12.57;6.47;;;19.30;99.90;;;;;;5137897;27;20035;-83
2023/07/24 09:00:05;;;;;;;13.02;6.65;;;19.40;99.90;;;;;;5123216;27;20040;-83
2023/07/24 09:02:33;;;;;;;11.93;6.50;;;19.30;99.90;;;;;;5104979;27;20511;-83
2023/07/24 09:04:59;;;;;;;12.07;6.60;;;19.30;99.90;;;;;;5138074;27;20035;-83
2023/07/24 09:07:26;;;;;;;9.90;5.82;;;19.30;99.90;;;;;;5104605;28;20557;-83
2023/07/24 09:09:53;;;;;;;12.13;6.53;;;19.30;99.90;;;;;;5128110;28;20098;-83
2023/07/24 09:12:22;;;;;;;14.10;5.80;;;19.20;99.90;;;;;;5128032;28;20041;-83
2023/07/24 09:14:59;;;;;;;10.20;6.15;;;19.30;99.90;;;;;;5145118;28;20539;-82
2023/07/24 09:17:26;;;;;;;9.63;6.05;;;19.30;99.90;;;;;;5128515;28;20078;-82
2023/07/24 09:19:57;;;;;;;11.73;6.28;;;19.40;99.90;;;;;;5101559;28;20074;-82
2023/07/24 09:22:26;;;;;;;10.25;5.85;;;19.40;99.90;;;;;;5136473;28;20682;-83
2023/07/24 09:24:57;;;;;;;9.85;5.70;;;19.50;99.90;;;;;;5143598;27;20093;-83
2023/07/24 09:27:28;;;;;;;10.27;5.82;;;19.70;99.90;;;;;;5129192;27;20039;-83
2023/07/24 09:29:55;;;;;;;10.88;5.32;;;19.70;99.90;;;;;;5148130;27;20483;-83
2023/07/24 09:32:26;;;;;;;9.30;6.05;;;19.80;99.90;;;;;;5147790;27;20082;-82
2023/07/24 09:34:56;;;;;;;12.95;6.50;;;19.80;99.90;;;;;;5124788;27;20084;-83
2023/07/24 09:37:23;;;;;;;9.75;5.88;;;19.70;99.90;;;;;;5152163;27;20473;-83
2023/07/24 09:39:50;;;;;;;10.35;6.05;;;19.60;99.90;;;;;;5169089;27;20070;-83
2023/07/24 09:42:16;;;;;;;12.60;6.13;;;19.70;99.90;;;;;;5169068;27;20039;-83
2023/07/24 09:44:43;;;;;;;11.10;5.68;;;19.90;99.90;;;;;;5151689;27;20035;-83
2023/07/24 09:47:10;;;;;;;9.13;5.53;;;20.00;99.90;;;;;;5153185;27;20055;-83
2023/07/24 09:49:37;;;;;;;9.48;5.35;;;20.10;99.90;;;;;;5094041;28;20040;-84
2023/07/24 09:52:09;;;;;;;12.65;6.07;;;20.10;99.90;;;;;;5127389;28;20043;-83
2023/07/24 09:54:48;;;;;;;11.45;5.28;;;20.20;99.90;;;;;;5127257;28;20522;-83
2023/07/24 09:57:17;;;;;;;10.15;5.32;;;20.20;99.90;;;;;;5132840;27;20565;-83
2023/07/24 09:59:44;;;;;;;11.27;4.90;;;20.20;99.90;;;;;;5147796;27;20080;-82
2023/07/24 10:02:12;;;;;;;8.98;5.00;;;20.30;99.90;;;;;;5130792;27;20499;-83
2023/07/24 10:04:40;;;;;;;10.75;5.28;;;20.30;99.90;;;;;;5130621;27;20038;-82
2023/07/24 10:07:07;;;;;;;8.60;4.82;;;20.30;99.90;;;;;;5129293;27;20459;-82
2023/07/24 10:09:38;;;;;;;9.75;4.70;;;20.40;99.90;;;;;;5111489;28;20066;-83
2023/07/24 10:12:05;;;;;;;10.85;4.43;;;20.60;99.90;;;;;;5144235;28;20047;-82
2023/07/24 10:14:32;;;;;;;10.57;4.60;;;20.90;99.90;;;;;;5093571;28;20502;-83
2023/07/24 10:16:59;;;;;;;9.40;4.90;;;21.10;99.90;;;;;;5110675;28;20411;-83
2023/07/24 10:19:37;;;;;;;11.57;4.68;;;21.30;99.90;;;;;;5115650;27;20048;-83
2023/07/24 10:22:06;;;;;;;7.40;4.40;;;21.40;99.90;;;;;;5121862;28;20043;-83
2023/07/24 10:24:33;;;;;;;9.38;4.72;;;21.50;99.90;;;;;;5101673;28;20038;-83
2023/07/24 10:27:02;;;;;;;9.45;4.35;;;21.70;99.90;;;;;;5121868;28;20067;-83
2023/07/24 10:29:29;;;;;;;8.15;4.10;;;21.90;99.90;;;;;;5111416;28;20039;-83
2023/07/24 10:31:55;;;;;;;10.85;4.13;;;22.20;99.90;;;;;;5110496;28;20679;-83
2023/07/24 10:34:22;;;;;;;8.50;4.10;;;22.40;99.90;;;;;;5127310;28;20051;-83
2023/07/24 10:36:49;;;;;;;10.15;4.10;;;22.50;99.90;;;;;;5126410;28;20140;-83
2023/07/24 10:39:19;;;;;;;6.82;4.05;;;22.60;99.90;;;;;;5122865;28;20073;-83
2023/07/24 10:41:47;;;;;;;8.00;3.92;;;22.70;99.90;;;;;;5116858;28;20130;-84
2023/07/24 10:44:14;;;;;;;8.85;3.92;;;22.90;99.90;;;;;;5110212;28;20154;-83
2023/07/24 10:46:44;;;;;;;7.68;3.67;;;22.80;99.90;;;;;;5109158;28;20087;-83
2023/07/24 10:49:11;;;;;;;7.18;3.65;;;22.90;99.90;;;;;;5127017;28;20055;-84
2023/07/24 10:51:38;;;;;;;7.13;3.70;;;23.00;99.90;;;;;;5109739;28;20043;-85
2023/07/24 10:54:06;;;;;;;8.85;3.40;;;22.90;99.90;;;;;;5129049;28;20046;-84
2023/07/24 10:56:33;;;;;;;6.45;3.25;;;23.10;99.90;;;;;;5164416;28;20438;-84
2023/07/24 10:59:06;;;;;;;6.80;3.00;;;23.00;99.90;;;;;;5150148;27;20095;-84
2023/07/24 11:01:33;;;;;;;7.85;3.40;;;23.20;99.90;;;;;;5134481;27;20180;-85
2023/07/24 11:04:00;;;;;;;8.27;3.60;;;23.40;99.90;;;;;;5130210;28;20044;-84
2023/07/24 11:06:28;;;;;;;8.40;3.08;;;23.50;99.90;;;;;;5114037;28;20035;-84
2023/07/24 11:08:59;;;;;;;7.07;2.97;;;23.50;99.90;;;;;;5113656;28;20155;-84
2023/07/24 11:11:30;;;;;;;6.45;3.40;;;23.30;99.90;;;;;;5113891;28;20415;-84
2023/07/24 11:13:57;;;;;;;8.70;3.45;;;23.50;99.90;;;;;;5131337;27;20039;-84
2023/07/24 11:16:24;;;;;;;6.47;3.35;;;23.60;99.90;;;;;;5147454;28;20039;-83
2023/07/24 11:18:52;;;;;;;8.10;3.45;;;23.40;99.90;;;;;;5113448;28;20530;-84
2023/07/24 11:21:19;;;;;;;5.32;3.35;;;23.40;99.90;;;;;;5130281;28;20383;-84
2023/07/24 11:23:53;;;;;;;7.18;3.35;;;23.60;99.90;;;;;;5112867;28;20160;-84
2023/07/24 11:26:25;;;;;;;6.95;3.40;;;23.40;99.90;;;;;;5129400;28;20048;-85
2023/07/24 11:28:53;;;;;;;6.32;3.25;;;23.20;99.90;;;;;;5129932;28;20035;-84
2023/07/24 11:31:20;;;;;;;6.07;3.30;;;23.20;99.90;;;;;;5113350;28;20512;-84
2023/07/24 11:33:51;;;;;;;6.40;3.03;;;23.20;99.90;;;;;;5112933;28;20040;-84
2023/07/24 11:36:19;;;;;;;6.50;3.08;;;23.20;99.90;;;;;;5138852;27;20046;-83
2023/07/24 11:38:48;;;;;;;9.65;3.58;;;23.20;99.90;;;;;;5133231;27;20615;-83
2023/07/24 11:41:17;;;;;;;8.57;3.67;;;23.30;99.90;;;;;;5117009;27;20479;-83
2023/07/24 11:43:48;;;;;;;7.07;3.33;;;23.10;99.90;;;;;;5150347;27;20042;-84
2023/07/24 11:46:26;;;;;;;8.38;3.60;;;23.00;99.90;;;;;;5138667;28;20052;-84
2023/07/24 11:48:56;;;;;;;8.25;4.05;;;22.90;99.90;;;;;;5129853;28;20032;-84
2023/07/24 11:51:25;;;;;;;6.95;3.63;;;22.90;99.90;;;;;;5113736;28;20043;-84
2023/07/24 11:53:52;;;;;;;6.28;3.28;;;22.90;99.90;;;;;;5112939;28;20039;-84
2023/07/24 11:56:20;;;;;;;8.68;3.50;;;22.60;99.90;;;;;;5132299;27;20391;-84
2023/07/24 11:58:46;;;;;;;8.00;3.33;;;22.50;99.90;;;;;;5149982;27;20035;-84
2023/07/24 12:01:13;;;;;;;6.55;3.45;;;22.30;99.90;;;;;;5133944;27;20039;-83
2023/07/24 12:03:41;;;;;;;9.98;4.00;;;22.20;99.90;;;;;;5133677;27;20039;-84
2023/07/24 12:06:20;;;;;;;8.27;3.72;;;21.90;99.90;;;;;;5143698;28;20071;-83
2023/07/24 12:08:46;;;;;;;10.93;4.28;;;21.70;99.90;;;;;;5113087;28;20044;-84
2023/07/24 12:11:18;;;;;;;11.30;4.57;;;21.70;99.90;;;;;;5096222;28;20036;-84
2023/07/24 12:13:48;;;;;;;7.10;3.75;;;21.70;99.90;;;;;;5129721;28;20075;-84
2023/07/24 12:16:14;;;;;;;7.55;3.83;;;21.80;99.90;;;;;;5114383;27;20041;-84
2023/07/24 12:18:41;;;;;;;10.95;3.75;;;22.00;99.90;;;;;;5095878;28;20036;-84
2023/07/24 12:21:08;;;;;;;7.82;3.90;;;22.20;99.90;;;;;;5128873;28;20031;-83
2023/07/24 12:23:34;;;;;;;7.68;4.18;;;22.30;99.90;;;;;;5095609;28;20035;-83
2023/07/24 12:26:01;;;;;;;10.48;4.70;;;22.40;99.90;;;;;;5095604;28;20039;-84
2023/07/24 12:28:28;;;;;;;8.70;4.00;;;22.30;99.90;;;;;;5110530;28;20036;-84
2023/07/24 12:30:54;;;;;;;8.85;3.90;;;22.30;99.90;;;;;;5095414;28;20112;-84
2023/07/24 12:33:23;;;;;;;8.90;4.30;;;22.40;99.90;;;;;;5095542;28;20035;-83
2023/07/24 12:35:50;;;;;;;6.28;3.47;;;22.80;99.90;;;;;;5112299;28;20059;-84
2023/07/24 12:38:17;;;;;;;5.80;2.92;;;23.10;99.90;;;;;;5105505;28;20127;-84
2023/07/24 12:40:44;;;;;;;7.68;3.22;;;23.30;99.90;;;;;;5112153;28;20586;-85
2023/07/24 12:43:10;;;;;;;6.38;3.10;;;23.40;99.90;;;;;;5094940;28;20044;-84